sensor_id;sensor_type;location;lat;lon;timestamp;P1;durP1;ratioP1;P2;durP2;ratioP2
19341;SDS011;9807;48.258;12.690;2023-03-21T00:01:56;5.33;;;4.20;;
19341;SDS011;9807;48.258;12.690;2023-03-21T00:04:28;7.07;;;4.07;;
19341;SDS011;9807;48.258;12.690;2023-03-21T00:06:54;5.90;;;4.30;;
19341;SDS011;9807;48.258;12.690;2023-03-21T00:09:20;6.83;;;4.30;;
19341;SDS011;9807;48.258;12.690;2023-03-21T00:11:46;5.27;;;4.27;;
19341;SDS011;9807;48.258;12.690;2023-03-21T00:14:15;7.40;;;4.40;;
19341;SDS011;9807;48.258;12.690;2023-03-21T00:16:42;6.17;;;4.43;;
19341;SDS011;9807;48.258;12.690;2023-03-21T00:19:10;6.00;;;4.40;;
19341;SDS011;9807;48.258;12.690;2023-03-21T00:21:36;6.43;;;4.40;;
19341;SDS011;9807;48.258;12.690;2023-03-21T00:24:05;5.30;;;4.00;;
19341;SDS011;9807;48.258;12.690;2023-03-21T00:26:32;8.80;;;5.40;;
19341;SDS011;9807;48.258;12.690;2023-03-21T00:28:58;7.60;;;5.10;;
19341;SDS011;9807;48.258;12.690;2023-03-21T00:31:23;6.17;;;5.00;;
19341;SDS011;9807;48.258;12.690;2023-03-21T00:33:49;5.90;;;4.30;;
19341;SDS011;9807;48.258;12.690;2023-03-21T00:36:15;5.00;;;3.90;;
19341;SDS011;9807;48.258;12.690;2023-03-21T00:38:41;5.60;;;3.80;;
19341;SDS011;9807;48.258;12.690;2023-03-21T00:41:08;5.63;;;3.83;;
19341;SDS011;9807;48.258;12.690;2023-03-21T00:43:37;7.67;;;5.17;;
19341;SDS011;9807;48.258;12.690;2023-03-21T00:46:04;7.10;;;4.87;;
19341;SDS011;9807;48.258;12.690;2023-03-21T00:48:30;5.40;;;4.10;;
19341;SDS011;9807;48.258;12.690;2023-03-21T00:50:57;6.70;;;4.67;;
19341;SDS011;9807;48.258;12.690;2023-03-21T00:53:26;6.63;;;4.93;;
19341;SDS011;9807;48.258;12.690;2023-03-21T00:55:58;8.83;;;5.30;;
19341;SDS011;9807;48.258;12.690;2023-03-21T00:58:24;7.90;;;5.50;;
19341;SDS011;9807;48.258;12.690;2023-03-21T01:00:50;10.87;;;5.50;;
19341;SDS011;9807;48.258;12.690;2023-03-21T01:03:16;7.13;;;5.00;;
19341;SDS011;9807;48.258;12.690;2023-03-21T01:05:43;7.80;;;4.80;;
19341;SDS011;9807;48.258;12.690;2023-03-21T01:08:30;4.93;;;3.80;;
19341;SDS011;9807;48.258;12.690;2023-03-21T01:11:07;4.97;;;3.57;;
19341;SDS011;9807;48.258;12.690;2023-03-21T01:13:37;4.90;;;3.87;;
19341;SDS011;9807;48.258;12.690;2023-03-21T01:16:04;7.80;;;4.63;;
19341;SDS011;9807;48.258;12.690;2023-03-21T01:18:31;7.47;;;4.23;;
19341;SDS011;9807;48.258;12.690;2023-03-21T01:21:00;6.10;;;4.33;;
19341;SDS011;9807;48.258;12.690;2023-03-21T01:23:27;6.57;;;4.17;;
19341;SDS011;9807;48.258;12.690;2023-03-21T01:25:53;5.33;;;4.40;;
19341;SDS011;9807;48.258;12.690;2023-03-21T01:28:21;5.90;;;3.90;;
19341;SDS011;9807;48.258;12.690;2023-03-21T01:30:49;5.37;;;3.83;;
19341;SDS011;9807;48.258;12.690;2023-03-21T01:33:16;5.73;;;4.10;;
19341;SDS011;9807;48.258;12.690;2023-03-21T01:35:42;6.20;;;4.10;;
19341;SDS011;9807;48.258;12.690;2023-03-21T01:38:12;3.77;;;3.37;;
19341;SDS011;9807;48.258;12.690;2023-03-21T01:40:38;8.07;;;5.00;;
19341;SDS011;9807;48.258;12.690;2023-03-21T01:43:14;7.83;;;4.47;;
19341;SDS011;9807;48.258;12.690;2023-03-21T01:48:45;10.30;;;5.50;;
19341;SDS011;9807;48.258;12.690;2023-03-21T01:51:18;8.67;;;5.20;;
19341;SDS011;9807;48.258;12.690;2023-03-21T01:53:44;10.73;;;6.00;;
19341;SDS011;9807;48.258;12.690;2023-03-21T01:56:13;8.77;;;5.77;;
19341;SDS011;9807;48.258;12.690;2023-03-21T01:59:04;5.90;;;4.40;;
19341;SDS011;9807;48.258;12.690;2023-03-21T02:01:38;6.87;;;4.13;;
19341;SDS011;9807;48.258;12.690;2023-03-21T02:04:06;7.13;;;4.63;;
19341;SDS011;9807;48.258;12.690;2023-03-21T02:09:11;5.90;;;4.43;;
19341;SDS011;9807;48.258;12.690;2023-03-21T02:11:43;5.40;;;3.80;;
19341;SDS011;9807;48.258;12.690;2023-03-21T02:14:14;5.63;;;4.60;;
19341;SDS011;9807;48.258;12.690;2023-03-21T02:16:59;5.33;;;3.83;;
19341;SDS011;9807;48.258;12.690;2023-03-21T02:25:36;4.77;;;3.37;;
19341;SDS011;9807;48.258;12.690;2023-03-21T02:28:11;4.70;;;3.60;;
19341;SDS011;9807;48.258;12.690;2023-03-21T02:36:27;5.13;;;3.80;;
19341;SDS011;9807;48.258;12.690;2023-03-21T02:39:11;6.43;;;4.20;;
19341;SDS011;9807;48.258;12.690;2023-03-21T02:44:21;5.57;;;3.90;;
19341;SDS011;9807;48.258;12.690;2023-03-21T02:46:58;4.40;;;3.60;;
19341;SDS011;9807;48.258;12.690;2023-03-21T02:52:25;8.43;;;4.57;;
19341;SDS011;9807;48.258;12.690;2023-03-21T02:54:57;7.53;;;5.10;;
19341;SDS011;9807;48.258;12.690;2023-03-21T02:57:25;8.13;;;4.57;;
19341;SDS011;9807;48.258;12.690;2023-03-21T02:59:53;8.07;;;4.37;;
19341;SDS011;9807;48.258;12.690;2023-03-21T03:02:22;5.23;;;4.20;;
19341;SDS011;9807;48.258;12.690;2023-03-21T03:04:51;4.80;;;3.80;;
19341;SDS011;9807;48.258;12.690;2023-03-21T03:07:19;4.03;;;3.37;;
19341;SDS011;9807;48.258;12.690;2023-03-21T03:13:14;4.40;;;3.23;;
19341;SDS011;9807;48.258;12.690;2023-03-21T03:15:57;4.13;;;3.27;;
19341;SDS011;9807;48.258;12.690;2023-03-21T03:20:54;4.70;;;3.43;;
19341;SDS011;9807;48.258;12.690;2023-03-21T03:23:43;6.73;;;3.67;;
19341;SDS011;9807;48.258;12.690;2023-03-21T03:28:50;4.23;;;3.23;;
19341;SDS011;9807;48.258;12.690;2023-03-21T03:31:52;5.53;;;3.90;;
19341;SDS011;9807;48.258;12.690;2023-03-21T03:34:17;9.20;;;4.23;;
19341;SDS011;9807;48.258;12.690;2023-03-21T03:36:46;4.57;;;3.77;;
19341;SDS011;9807;48.258;12.690;2023-03-21T03:39:20;6.90;;;4.20;;
19341;SDS011;9807;48.258;12.690;2023-03-21T03:41:59;4.87;;;4.13;;
19341;SDS011;9807;48.258;12.690;2023-03-21T03:44:29;4.20;;;3.27;;
19341;SDS011;9807;48.258;12.690;2023-03-21T03:46:57;3.80;;;3.13;;
19341;SDS011;9807;48.258;12.690;2023-03-21T03:49:28;7.23;;;3.53;;
19341;SDS011;9807;48.258;12.690;2023-03-21T03:52:04;5.70;;;3.23;;
19341;SDS011;9807;48.258;12.690;2023-03-21T03:54:40;4.40;;;2.87;;
19341;SDS011;9807;48.258;12.690;2023-03-21T03:57:08;5.43;;;3.50;;
19341;SDS011;9807;48.258;12.690;2023-03-21T03:59:36;4.33;;;3.23;;
19341;SDS011;9807;48.258;12.690;2023-03-21T04:02:03;3.47;;;3.17;;
19341;SDS011;9807;48.258;12.690;2023-03-21T04:04:29;4.03;;;3.17;;
19341;SDS011;9807;48.258;12.690;2023-03-21T04:06:55;7.77;;;4.20;;
19341;SDS011;9807;48.258;12.690;2023-03-21T04:09:21;4.93;;;3.50;;
19341;SDS011;9807;48.258;12.690;2023-03-21T04:11:47;5.07;;;4.03;;
19341;SDS011;9807;48.258;12.690;2023-03-21T04:14:13;8.23;;;3.83;;
19341;SDS011;9807;48.258;12.690;2023-03-21T04:16:39;3.67;;;2.90;;
19341;SDS011;9807;48.258;12.690;2023-03-21T04:19:05;6.43;;;3.80;;
19341;SDS011;9807;48.258;12.690;2023-03-21T04:21:30;5.97;;;3.53;;
19341;SDS011;9807;48.258;12.690;2023-03-21T04:23:56;4.57;;;3.43;;
19341;SDS011;9807;48.258;12.690;2023-03-21T04:26:23;5.57;;;3.90;;
19341;SDS011;9807;48.258;12.690;2023-03-21T04:28:49;7.67;;;4.10;;
19341;SDS011;9807;48.258;12.690;2023-03-21T04:31:15;6.43;;;4.23;;
19341;SDS011;9807;48.258;12.690;2023-03-21T04:33:42;7.07;;;4.63;;
19341;SDS011;9807;48.258;12.690;2023-03-21T04:36:08;11.07;;;5.10;;
19341;SDS011;9807;48.258;12.690;2023-03-21T04:38:50;7.90;;;4.70;;
19341;SDS011;9807;48.258;12.690;2023-03-21T04:41:16;10.97;;;5.53;;
19341;SDS011;9807;48.258;12.690;2023-03-21T04:43:43;7.43;;;4.93;;
19341;SDS011;9807;48.258;12.690;2023-03-21T04:46:16;10.87;;;5.30;;
19341;SDS011;9807;48.258;12.690;2023-03-21T04:48:42;7.23;;;4.87;;
19341;SDS011;9807;48.258;12.690;2023-03-21T04:51:07;7.33;;;4.53;;
19341;SDS011;9807;48.258;12.690;2023-03-21T04:53:33;9.77;;;4.23;;
19341;SDS011;9807;48.258;12.690;2023-03-21T04:56:02;10.20;;;5.50;;
19341;SDS011;9807;48.258;12.690;2023-03-21T04:58:28;9.00;;;4.40;;
19341;SDS011;9807;48.258;12.690;2023-03-21T05:00:54;7.87;;;4.87;;
19341;SDS011;9807;48.258;12.690;2023-03-21T05:03:21;5.57;;;4.13;;
19341;SDS011;9807;48.258;12.690;2023-03-21T05:05:47;7.50;;;4.57;;
19341;SDS011;9807;48.258;12.690;2023-03-21T05:08:13;7.30;;;4.23;;
19341;SDS011;9807;48.258;12.690;2023-03-21T05:10:39;5.43;;;3.73;;
19341;SDS011;9807;48.258;12.690;2023-03-21T05:13:09;4.20;;;3.13;;
19341;SDS011;9807;48.258;12.690;2023-03-21T05:15:35;4.10;;;3.10;;
19341;SDS011;9807;48.258;12.690;2023-03-21T05:18:01;13.57;;;5.67;;
19341;SDS011;9807;48.258;12.690;2023-03-21T05:20:38;4.37;;;3.27;;
19341;SDS011;9807;48.258;12.690;2023-03-21T05:23:08;10.60;;;4.97;;
19341;SDS011;9807;48.258;12.690;2023-03-21T05:25:38;5.87;;;3.63;;
19341;SDS011;9807;48.258;12.690;2023-03-21T05:28:05;4.47;;;3.03;;
19341;SDS011;9807;48.258;12.690;2023-03-21T05:30:31;4.57;;;3.00;;
19341;SDS011;9807;48.258;12.690;2023-03-21T05:32:58;5.77;;;3.50;;
19341;SDS011;9807;48.258;12.690;2023-03-21T05:35:24;5.67;;;3.60;;
19341;SDS011;9807;48.258;12.690;2023-03-21T05:37:53;7.70;;;4.30;;
19341;SDS011;9807;48.258;12.690;2023-03-21T05:40:19;5.10;;;3.90;;
19341;SDS011;9807;48.258;12.690;2023-03-21T05:42:45;8.43;;;4.40;;
19341;SDS011;9807;48.258;12.690;2023-03-21T05:45:12;8.63;;;3.30;;
19341;SDS011;9807;48.258;12.690;2023-03-21T05:47:41;6.10;;;3.87;;
19341;SDS011;9807;48.258;12.690;2023-03-21T05:50:07;13.57;;;5.77;;
19341;SDS011;9807;48.258;12.690;2023-03-21T05:52:33;12.00;;;5.20;;
19341;SDS011;9807;48.258;12.690;2023-03-21T05:55:03;19.17;;;6.77;;
19341;SDS011;9807;48.258;12.690;2023-03-21T05:57:36;12.07;;;6.10;;
19341;SDS011;9807;48.258;12.690;2023-03-21T06:00:05;10.40;;;4.67;;
19341;SDS011;9807;48.258;12.690;2023-03-21T06:02:32;11.00;;;4.90;;
19341;SDS011;9807;48.258;12.690;2023-03-21T06:04:58;8.40;;;5.13;;
19341;SDS011;9807;48.258;12.690;2023-03-21T06:07:27;14.93;;;6.30;;
19341;SDS011;9807;48.258;12.690;2023-03-21T06:09:53;14.13;;;5.43;;
19341;SDS011;9807;48.258;12.690;2023-03-21T06:12:18;12.00;;;5.67;;
19341;SDS011;9807;48.258;12.690;2023-03-21T06:14:44;8.27;;;5.37;;
19341;SDS011;9807;48.258;12.690;2023-03-21T06:17:10;8.00;;;4.93;;
19341;SDS011;9807;48.258;12.690;2023-03-21T06:19:39;15.43;;;6.07;;
19341;SDS011;9807;48.258;12.690;2023-03-21T06:22:05;11.20;;;6.73;;
19341;SDS011;9807;48.258;12.690;2023-03-21T06:24:31;14.73;;;8.80;;
19341;SDS011;9807;48.258;12.690;2023-03-21T06:26:57;15.47;;;7.13;;
19341;SDS011;9807;48.258;12.690;2023-03-21T06:29:25;8.83;;;5.80;;
19341;SDS011;9807;48.258;12.690;2023-03-21T06:31:58;13.93;;;6.80;;
19341;SDS011;9807;48.258;12.690;2023-03-21T06:34:24;12.43;;;7.27;;
19341;SDS011;9807;48.258;12.690;2023-03-21T06:36:50;15.33;;;8.63;;
19341;SDS011;9807;48.258;12.690;2023-03-21T06:39:18;14.37;;;8.60;;
19341;SDS011;9807;48.258;12.690;2023-03-21T06:41:44;11.90;;;7.70;;
19341;SDS011;9807;48.258;12.690;2023-03-21T06:44:10;17.73;;;6.90;;
19341;SDS011;9807;48.258;12.690;2023-03-21T06:46:36;9.30;;;6.33;;
19341;SDS011;9807;48.258;12.690;2023-03-21T06:49:02;10.13;;;6.47;;
19341;SDS011;9807;48.258;12.690;2023-03-21T06:51:28;14.97;;;6.60;;
19341;SDS011;9807;48.258;12.690;2023-03-21T06:53:57;10.83;;;6.80;;
19341;SDS011;9807;48.258;12.690;2023-03-21T06:56:23;10.17;;;6.80;;
19341;SDS011;9807;48.258;12.690;2023-03-21T06:58:49;11.37;;;7.67;;
19341;SDS011;9807;48.258;12.690;2023-03-21T07:01:18;16.10;;;7.77;;
19341;SDS011;9807;48.258;12.690;2023-03-21T07:03:47;11.50;;;7.77;;
19341;SDS011;9807;48.258;12.690;2023-03-21T07:06:13;11.90;;;7.03;;
19341;SDS011;9807;48.258;12.690;2023-03-21T07:08:39;11.37;;;7.37;;
19341;SDS011;9807;48.258;12.690;2023-03-21T07:11:05;12.40;;;7.00;;
19341;SDS011;9807;48.258;12.690;2023-03-21T07:13:31;11.37;;;7.07;;
19341;SDS011;9807;48.258;12.690;2023-03-21T07:15:57;9.90;;;7.87;;
19341;SDS011;9807;48.258;12.690;2023-03-21T07:18:26;11.17;;;7.93;;
19341;SDS011;9807;48.258;12.690;2023-03-21T07:20:52;10.50;;;7.47;;
19341;SDS011;9807;48.258;12.690;2023-03-21T07:23:19;11.03;;;7.23;;
19341;SDS011;9807;48.258;12.690;2023-03-21T07:25:47;16.93;;;8.40;;
19341;SDS011;9807;48.258;12.690;2023-03-21T07:28:14;10.20;;;7.30;;
19341;SDS011;9807;48.258;12.690;2023-03-21T07:30:43;13.63;;;8.17;;
19341;SDS011;9807;48.258;12.690;2023-03-21T07:33:09;15.33;;;8.40;;
19341;SDS011;9807;48.258;12.690;2023-03-21T07:35:36;14.03;;;8.13;;
19341;SDS011;9807;48.258;12.690;2023-03-21T07:38:08;15.07;;;8.53;;
19341;SDS011;9807;48.258;12.690;2023-03-21T07:40:33;16.73;;;8.67;;
19341;SDS011;9807;48.258;12.690;2023-03-21T07:43:03;18.70;;;9.07;;
19341;SDS011;9807;48.258;12.690;2023-03-21T07:45:28;16.80;;;9.10;;
19341;SDS011;9807;48.258;12.690;2023-03-21T07:47:54;14.63;;;8.03;;
19341;SDS011;9807;48.258;12.690;2023-03-21T07:50:23;13.60;;;8.13;;
19341;SDS011;9807;48.258;12.690;2023-03-21T07:52:48;12.30;;;7.93;;
19341;SDS011;9807;48.258;12.690;2023-03-21T07:55:14;11.17;;;7.53;;
19341;SDS011;9807;48.258;12.690;2023-03-21T07:57:43;12.40;;;7.47;;
19341;SDS011;9807;48.258;12.690;2023-03-21T08:00:18;15.57;;;8.10;;
19341;SDS011;9807;48.258;12.690;2023-03-21T08:02:47;13.10;;;8.90;;
19341;SDS011;9807;48.258;12.690;2023-03-21T08:05:14;19.40;;;11.17;;
19341;SDS011;9807;48.258;12.690;2023-03-21T08:07:44;20.97;;;10.60;;
19341;SDS011;9807;48.258;12.690;2023-03-21T08:10:13;13.77;;;8.40;;
19341;SDS011;9807;48.258;12.690;2023-03-21T08:12:38;17.13;;;8.83;;
19341;SDS011;9807;48.258;12.690;2023-03-21T08:15:04;15.27;;;8.03;;
19341;SDS011;9807;48.258;12.690;2023-03-21T08:17:31;15.97;;;8.43;;
19341;SDS011;9807;48.258;12.690;2023-03-21T08:19:56;15.80;;;9.00;;
19341;SDS011;9807;48.258;12.690;2023-03-21T08:22:22;14.40;;;8.40;;
19341;SDS011;9807;48.258;12.690;2023-03-21T08:24:48;14.30;;;8.57;;
19341;SDS011;9807;48.258;12.690;2023-03-21T08:27:13;13.33;;;7.93;;
19341;SDS011;9807;48.258;12.690;2023-03-21T08:29:39;11.00;;;8.30;;
19341;SDS011;9807;48.258;12.690;2023-03-21T08:32:09;14.50;;;8.60;;
19341;SDS011;9807;48.258;12.690;2023-03-21T08:34:38;14.17;;;8.93;;
19341;SDS011;9807;48.258;12.690;2023-03-21T08:37:03;14.47;;;8.83;;
19341;SDS011;9807;48.258;12.690;2023-03-21T08:39:29;20.63;;;9.03;;
19341;SDS011;9807;48.258;12.690;2023-03-21T08:41:55;18.57;;;9.60;;
19341;SDS011;9807;48.258;12.690;2023-03-21T08:44:20;15.30;;;8.70;;
19341;SDS011;9807;48.258;12.690;2023-03-21T08:46:49;16.20;;;8.90;;
19341;SDS011;9807;48.258;12.690;2023-03-21T08:49:18;19.23;;;9.07;;
19341;SDS011;9807;48.258;12.690;2023-03-21T08:51:43;18.43;;;9.60;;
19341;SDS011;9807;48.258;12.690;2023-03-21T08:54:19;15.17;;;8.57;;
19341;SDS011;9807;48.258;12.690;2023-03-21T08:56:46;15.13;;;8.87;;
19341;SDS011;9807;48.258;12.690;2023-03-21T08:59:13;11.67;;;7.93;;
19341;SDS011;9807;48.258;12.690;2023-03-21T09:01:40;14.23;;;6.67;;
19341;SDS011;9807;48.258;12.690;2023-03-21T09:04:06;12.70;;;8.00;;
19341;SDS011;9807;48.258;12.690;2023-03-21T09:06:40;11.10;;;7.40;;
19341;SDS011;9807;48.258;12.690;2023-03-21T09:09:12;9.23;;;5.60;;
19341;SDS011;9807;48.258;12.690;2023-03-21T09:11:39;11.57;;;7.67;;
19341;SDS011;9807;48.258;12.690;2023-03-21T09:14:05;14.10;;;7.67;;
19341;SDS011;9807;48.258;12.690;2023-03-21T09:16:31;13.27;;;8.27;;
19341;SDS011;9807;48.258;12.690;2023-03-21T09:18:57;10.03;;;7.50;;
19341;SDS011;9807;48.258;12.690;2023-03-21T09:21:23;10.10;;;6.90;;
19341;SDS011;9807;48.258;12.690;2023-03-21T09:23:50;10.87;;;6.70;;
19341;SDS011;9807;48.258;12.690;2023-03-21T09:26:20;6.97;;;5.13;;
19341;SDS011;9807;48.258;12.690;2023-03-21T09:28:47;12.93;;;6.50;;
19341;SDS011;9807;48.258;12.690;2023-03-21T09:31:13;9.17;;;5.63;;
19341;SDS011;9807;48.258;12.690;2023-03-21T09:33:47;9.67;;;6.23;;
19341;SDS011;9807;48.258;12.690;2023-03-21T09:36:14;9.43;;;5.77;;
19341;SDS011;9807;48.258;12.690;2023-03-21T09:38:41;13.43;;;5.67;;
19341;SDS011;9807;48.258;12.690;2023-03-21T09:49:06;8.97;;;6.30;;
19341;SDS011;9807;48.258;12.690;2023-03-21T09:51:55;8.70;;;6.30;;
19341;SDS011;9807;48.258;12.690;2023-03-21T09:54:27;6.63;;;4.90;;
19341;SDS011;9807;48.258;12.690;2023-03-21T09:56:58;10.70;;;7.53;;
19341;SDS011;9807;48.258;12.690;2023-03-21T09:59:36;11.67;;;8.10;;
19341;SDS011;9807;48.258;12.690;2023-03-21T10:02:47;14.03;;;8.10;;
19341;SDS011;9807;48.258;12.690;2023-03-21T10:05:20;8.87;;;6.67;;
19341;SDS011;9807;48.258;12.690;2023-03-21T10:07:53;13.30;;;7.80;;
19341;SDS011;9807;48.258;12.690;2023-03-21T10:10:46;11.03;;;7.77;;
19341;SDS011;9807;48.258;12.690;2023-03-21T10:13:27;12.13;;;6.93;;
19341;SDS011;9807;48.258;12.690;2023-03-21T10:15:57;16.57;;;7.33;;
19341;SDS011;9807;48.258;12.690;2023-03-21T10:18:26;15.07;;;8.63;;
19341;SDS011;9807;48.258;12.690;2023-03-21T10:20:58;14.63;;;8.93;;
19341;SDS011;9807;48.258;12.690;2023-03-21T10:23:26;17.00;;;8.37;;
19341;SDS011;9807;48.258;12.690;2023-03-21T10:25:57;11.83;;;8.27;;
19341;SDS011;9807;48.258;12.690;2023-03-21T10:28:39;11.83;;;8.50;;
19341;SDS011;9807;48.258;12.690;2023-03-21T10:31:13;16.67;;;8.70;;
19341;SDS011;9807;48.258;12.690;2023-03-21T10:33:45;13.13;;;8.70;;
19341;SDS011;9807;48.258;12.690;2023-03-21T10:36:15;11.33;;;8.13;;
19341;SDS011;9807;48.258;12.690;2023-03-21T10:39:00;14.43;;;8.07;;
19341;SDS011;9807;48.258;12.690;2023-03-21T10:41:37;12.57;;;7.20;;
19341;SDS011;9807;48.258;12.690;2023-03-21T10:44:10;6.53;;;5.10;;
19341;SDS011;9807;48.258;12.690;2023-03-21T10:46:54;8.67;;;5.17;;
19341;SDS011;9807;48.258;12.690;2023-03-21T10:49:28;14.37;;;8.17;;
19341;SDS011;9807;48.258;12.690;2023-03-21T10:52:13;8.23;;;6.50;;
19341;SDS011;9807;48.258;12.690;2023-03-21T10:54:42;14.13;;;7.60;;
19341;SDS011;9807;48.258;12.690;2023-03-21T10:57:19;14.70;;;7.00;;
19341;SDS011;9807;48.258;12.690;2023-03-21T10:59:57;9.60;;;7.70;;
19341;SDS011;9807;48.258;12.690;2023-03-21T11:02:38;12.57;;;7.93;;
19341;SDS011;9807;48.258;12.690;2023-03-21T11:05:06;10.37;;;7.73;;
19341;SDS011;9807;48.258;12.690;2023-03-21T11:07:42;9.77;;;6.90;;
19341;SDS011;9807;48.258;12.690;2023-03-21T11:10:15;14.43;;;8.03;;
19341;SDS011;9807;48.258;12.690;2023-03-21T11:12:54;7.77;;;5.83;;
19341;SDS011;9807;48.258;12.690;2023-03-21T11:18:29;13.67;;;7.40;;
19341;SDS011;9807;48.258;12.690;2023-03-21T11:20:58;9.87;;;7.07;;
19341;SDS011;9807;48.258;12.690;2023-03-21T11:23:29;9.50;;;6.70;;
19341;SDS011;9807;48.258;12.690;2023-03-21T11:25:57;9.70;;;6.70;;
19341;SDS011;9807;48.258;12.690;2023-03-21T11:28:46;11.27;;;6.10;;
19341;SDS011;9807;48.258;12.690;2023-03-21T11:31:11;12.07;;;6.43;;
19341;SDS011;9807;48.258;12.690;2023-03-21T11:33:38;8.40;;;5.30;;
19341;SDS011;9807;48.258;12.690;2023-03-21T11:36:26;8.70;;;6.17;;
19341;SDS011;9807;48.258;12.690;2023-03-21T11:38:59;8.00;;;5.10;;
19341;SDS011;9807;48.258;12.690;2023-03-21T11:41:33;7.87;;;6.33;;
19341;SDS011;9807;48.258;12.690;2023-03-21T11:44:01;8.00;;;6.30;;
19341;SDS011;9807;48.258;12.690;2023-03-21T11:46:28;10.97;;;6.50;;
19341;SDS011;9807;48.258;12.690;2023-03-21T11:48:55;10.90;;;7.20;;
19341;SDS011;9807;48.258;12.690;2023-03-21T11:57:15;8.33;;;6.87;;
19341;SDS011;9807;48.258;12.690;2023-03-21T12:14:18;12.00;;;6.93;;
19341;SDS011;9807;48.258;12.690;2023-03-21T12:31:26;7.47;;;5.30;;
19341;SDS011;9807;48.258;12.690;2023-03-21T12:39:58;5.30;;;4.80;;
19341;SDS011;9807;48.258;12.690;2023-03-21T12:45:37;7.00;;;5.17;;
19341;SDS011;9807;48.258;12.690;2023-03-21T12:48:56;6.40;;;5.43;;
19341;SDS011;9807;48.258;12.690;2023-03-21T12:51:13;13.83;;;6.53;;
19341;SDS011;9807;48.258;12.690;2023-03-21T12:53:53;7.97;;;5.43;;
19341;SDS011;9807;48.258;12.690;2023-03-21T12:57:11;7.20;;;5.00;;
19341;SDS011;9807;48.258;12.690;2023-03-21T12:59:47;6.83;;;5.00;;
19341;SDS011;9807;48.258;12.690;2023-03-21T13:07:57;7.03;;;5.33;;
19341;SDS011;9807;48.258;12.690;2023-03-21T13:10:39;10.90;;;5.77;;
19341;SDS011;9807;48.258;12.690;2023-03-21T13:18:38;11.00;;;6.77;;
19341;SDS011;9807;48.258;12.690;2023-03-21T13:21:12;15.80;;;6.30;;
19341;SDS011;9807;48.258;12.690;2023-03-21T13:27:14;7.00;;;5.43;;
19341;SDS011;9807;48.258;12.690;2023-03-21T13:29:40;8.23;;;5.10;;
19341;SDS011;9807;48.258;12.690;2023-03-21T13:35:32;7.57;;;5.40;;
19341;SDS011;9807;48.258;12.690;2023-03-21T13:37:57;10.80;;;5.50;;
19341;SDS011;9807;48.258;12.690;2023-03-21T13:40:50;8.97;;;5.20;;
19341;SDS011;9807;48.258;12.690;2023-03-21T13:43:43;9.27;;;5.13;;
19341;SDS011;9807;48.258;12.690;2023-03-21T13:48:58;7.23;;;6.20;;
19341;SDS011;9807;48.258;12.690;2023-03-21T13:51:49;7.97;;;5.93;;
19341;SDS011;9807;48.258;12.690;2023-03-21T13:54:21;4.57;;;3.80;;
19341;SDS011;9807;48.258;12.690;2023-03-21T13:57:11;6.60;;;4.87;;
19341;SDS011;9807;48.258;12.690;2023-03-21T14:00:16;6.67;;;4.77;;
19341;SDS011;9807;48.258;12.690;2023-03-21T14:02:58;7.03;;;5.10;;
19341;SDS011;9807;48.258;12.690;2023-03-21T14:05:30;6.73;;;4.83;;
19341;SDS011;9807;48.258;12.690;2023-03-21T14:07:59;4.87;;;3.90;;
19341;SDS011;9807;48.258;12.690;2023-03-21T14:10:37;6.53;;;4.17;;
19341;SDS011;9807;48.258;12.690;2023-03-21T14:13:06;4.67;;;4.17;;
19341;SDS011;9807;48.258;12.690;2023-03-21T14:15:44;4.63;;;3.50;;
19341;SDS011;9807;48.258;12.690;2023-03-21T14:18:38;3.90;;;3.20;;
19341;SDS011;9807;48.258;12.690;2023-03-21T14:21:13;7.73;;;4.43;;
19341;SDS011;9807;48.258;12.690;2023-03-21T14:23:54;6.10;;;4.70;;
19341;SDS011;9807;48.258;12.690;2023-03-21T14:26:28;8.27;;;4.90;;
19341;SDS011;9807;48.258;12.690;2023-03-21T14:28:58;5.10;;;3.93;;
19341;SDS011;9807;48.258;12.690;2023-03-21T14:31:28;5.43;;;4.37;;
19341;SDS011;9807;48.258;12.690;2023-03-21T14:33:57;5.80;;;3.70;;
19341;SDS011;9807;48.258;12.690;2023-03-21T14:36:26;7.77;;;4.77;;
19341;SDS011;9807;48.258;12.690;2023-03-21T14:41:42;7.37;;;5.37;;
19341;SDS011;9807;48.258;12.690;2023-03-21T14:44:22;4.90;;;4.33;;
19341;SDS011;9807;48.258;12.690;2023-03-21T14:47:04;7.37;;;4.83;;
19341;SDS011;9807;48.258;12.690;2023-03-21T14:49:36;9.23;;;5.30;;
19341;SDS011;9807;48.258;12.690;2023-03-21T14:52:03;8.70;;;5.60;;
19341;SDS011;9807;48.258;12.690;2023-03-21T14:54:39;7.67;;;4.93;;
19341;SDS011;9807;48.258;12.690;2023-03-21T14:57:30;7.67;;;5.80;;
19341;SDS011;9807;48.258;12.690;2023-03-21T14:59:58;6.53;;;5.10;;
19341;SDS011;9807;48.258;12.690;2023-03-21T15:02:29;8.53;;;5.43;;
19341;SDS011;9807;48.258;12.690;2023-03-21T15:07:57;7.57;;;5.90;;
19341;SDS011;9807;48.258;12.690;2023-03-21T15:10:31;8.57;;;6.23;;
19341;SDS011;9807;48.258;12.690;2023-03-21T15:12:58;8.67;;;6.27;;
19341;SDS011;9807;48.258;12.690;2023-03-21T15:15:26;7.77;;;5.87;;
19341;SDS011;9807;48.258;12.690;2023-03-21T15:17:57;7.87;;;5.33;;
19341;SDS011;9807;48.258;12.690;2023-03-21T15:20:28;9.60;;;6.00;;
19341;SDS011;9807;48.258;12.690;2023-03-21T15:23:00;9.03;;;5.70;;
19341;SDS011;9807;48.258;12.690;2023-03-21T15:25:29;8.30;;;5.47;;
19341;SDS011;9807;48.258;12.690;2023-03-21T15:27:58;8.07;;;5.70;;
19341;SDS011;9807;48.258;12.690;2023-03-21T15:30:29;8.77;;;5.83;;
19341;SDS011;9807;48.258;12.690;2023-03-21T15:32:57;8.13;;;5.87;;
19341;SDS011;9807;48.258;12.690;2023-03-21T15:35:40;6.90;;;5.63;;
19341;SDS011;9807;48.258;12.690;2023-03-21T15:43:42;8.20;;;5.73;;
19341;SDS011;9807;48.258;12.690;2023-03-21T15:46:13;6.27;;;5.37;;
19341;SDS011;9807;48.258;12.690;2023-03-21T15:51:39;7.87;;;6.10;;
19341;SDS011;9807;48.258;12.690;2023-03-21T15:54:13;9.83;;;6.50;;
19341;SDS011;9807;48.258;12.690;2023-03-21T15:56:43;9.60;;;6.10;;
19341;SDS011;9807;48.258;12.690;2023-03-21T15:59:18;10.90;;;5.93;;
19341;SDS011;9807;48.258;12.690;2023-03-21T16:01:47;9.00;;;5.67;;
19341;SDS011;9807;48.258;12.690;2023-03-21T16:04:15;10.63;;;6.00;;
19341;SDS011;9807;48.258;12.690;2023-03-21T16:06:58;9.50;;;6.70;;
19341;SDS011;9807;48.258;12.690;2023-03-21T16:09:38;8.63;;;6.17;;
19341;SDS011;9807;48.258;12.690;2023-03-21T16:12:11;7.43;;;5.60;;
19341;SDS011;9807;48.258;12.690;2023-03-21T16:14:39;8.67;;;5.60;;
19341;SDS011;9807;48.258;12.690;2023-03-21T16:17:26;12.00;;;5.90;;
19341;SDS011;9807;48.258;12.690;2023-03-21T16:19:52;6.80;;;5.37;;
19341;SDS011;9807;48.258;12.690;2023-03-21T16:22:18;9.40;;;5.73;;
19341;SDS011;9807;48.258;12.690;2023-03-21T16:24:45;9.00;;;6.57;;
19341;SDS011;9807;48.258;12.690;2023-03-21T16:27:11;10.47;;;6.07;;
19341;SDS011;9807;48.258;12.690;2023-03-21T16:29:37;7.53;;;6.10;;
19341;SDS011;9807;48.258;12.690;2023-03-21T16:32:03;8.17;;;5.90;;
19341;SDS011;9807;48.258;12.690;2023-03-21T16:34:33;9.80;;;6.03;;
19341;SDS011;9807;48.258;12.690;2023-03-21T16:37:09;8.97;;;5.07;;
19341;SDS011;9807;48.258;12.690;2023-03-21T16:39:36;7.83;;;5.30;;
19341;SDS011;9807;48.258;12.690;2023-03-21T16:42:02;12.47;;;6.33;;
19341;SDS011;9807;48.258;12.690;2023-03-21T16:44:28;10.03;;;7.60;;
19341;SDS011;9807;48.258;12.690;2023-03-21T16:46:53;8.17;;;5.50;;
19341;SDS011;9807;48.258;12.690;2023-03-21T16:49:22;12.10;;;5.80;;
19341;SDS011;9807;48.258;12.690;2023-03-21T16:51:50;7.50;;;5.80;;
19341;SDS011;9807;48.258;12.690;2023-03-21T16:54:16;10.07;;;6.30;;
19341;SDS011;9807;48.258;12.690;2023-03-21T16:56:43;18.47;;;7.07;;
19341;SDS011;9807;48.258;12.690;2023-03-21T16:59:14;8.53;;;5.80;;
19341;SDS011;9807;48.258;12.690;2023-03-21T17:01:41;8.47;;;5.07;;
19341;SDS011;9807;48.258;12.690;2023-03-21T17:04:10;6.60;;;5.03;;
19341;SDS011;9807;48.258;12.690;2023-03-21T17:06:41;6.50;;;4.83;;